Fortuna, North Dakota
Current Conditions -  °F | °C
As of 3:35 PM on Saturday 22 Nov 2014 (Local Time) from KD50 Reporting Station
Overcast Overcast  
Wind Chill: 33°   Ceiling: 7000
Heat Index: 41°   Visibility: 10mi
Dew Point: 32°   Wind: 14mph
Humidity: 70%   Direction: 200°SSW
Pressure: 29.2"   Gusts: 22mph
Location:  48.91°N, 103.78°W
Report Text: KD50 222135Z AUTO 20012G19KT 10SM OVC070 05/00 A2920 RMK AO2
Loading
Personal Weather Stations






























Interactive Weather Map New forecast layout! Learn more

10-Day Weather Forecast

Advertisements
Track Severe Weather on mobile